createdAt,value
2022-08-29T00:02:49.582Z,10.73
2022-08-29T00:05:42.414Z,7.83
2022-08-29T00:08:35.214Z,12.67
2022-08-29T00:11:26.612Z,9.97
2022-08-29T00:14:23.340Z,6.53
2022-08-29T00:17:15.483Z,10.37
2022-08-29T00:20:07.721Z,8.73
2022-08-29T00:22:59.381Z,7.03
2022-08-29T00:25:54.395Z,11.10
2022-08-29T00:28:45.597Z,9.57
2022-08-29T00:31:36.936Z,8.50
2022-08-29T00:34:27.990Z,12.63
2022-08-29T00:37:19.351Z,7.53
2022-08-29T00:40:12.190Z,6.93
2022-08-29T00:43:05.465Z,9.67
2022-08-29T00:46:04.062Z,8.43
2022-08-29T00:48:56.864Z,5.80
2022-08-29T00:51:48.899Z,11.57
2022-08-29T00:54:40.855Z,7.30
2022-08-29T00:57:33.622Z,7.50
2022-08-29T01:00:27.255Z,9.03
2022-08-29T01:03:18.468Z,8.67
2022-08-29T01:06:10.037Z,9.90
2022-08-29T01:09:01.613Z,6.27
2022-08-29T01:12:11.048Z,9.83
2022-08-29T01:15:04.007Z,6.80
2022-08-29T01:17:57.353Z,6.50
2022-08-29T01:20:53.745Z,8.30
2022-08-29T01:23:47.975Z,6.30
2022-08-29T01:26:41.051Z,7.47
2022-08-29T01:29:32.468Z,7.57
2022-08-29T01:32:24.420Z,11.13
2022-08-29T01:35:15.751Z,7.00
2022-08-29T01:38:07.116Z,7.13
2022-08-29T01:40:59.782Z,8.03
2022-08-29T01:43:53.553Z,9.23
2022-08-29T01:46:44.976Z,7.13
2022-08-29T01:49:37.807Z,9.37
2022-08-29T01:52:32.422Z,8.73
2022-08-29T01:55:24.032Z,8.73
2022-08-29T01:58:16.615Z,9.37
2022-08-29T02:01:10.248Z,6.63
2022-08-29T02:04:01.888Z,9.47
2022-08-29T02:06:53.309Z,7.63
2022-08-29T02:09:45.627Z,10.77
2022-08-29T02:12:37.374Z,8.13
2022-08-29T02:15:28.671Z,10.97
2022-08-29T02:18:21.442Z,10.33
2022-08-29T02:21:13.782Z,8.30
2022-08-29T02:24:23.894Z,9.70
2022-08-29T02:27:16.112Z,7.03
2022-08-29T02:30:07.599Z,7.67
2022-08-29T02:32:59.227Z,8.43
2022-08-29T02:35:51.715Z,12.87
2022-08-29T02:38:43.009Z,9.40
2022-08-29T02:41:34.417Z,11.30
2022-08-29T02:44:25.705Z,9.97
2022-08-29T02:47:18.166Z,12.87
2022-08-29T02:50:11.112Z,7.50
2022-08-29T02:53:03.658Z,7.00
2022-08-29T02:55:55.286Z,7.20
2022-08-29T02:58:46.603Z,10.90
2022-08-29T03:01:39.112Z,9.27
2022-08-29T03:04:30.705Z,8.13
2022-08-29T03:07:21.986Z,11.43
2022-08-29T03:10:14.532Z,12.97
2022-08-29T03:13:06.424Z,10.57
2022-08-29T03:15:58.015Z,10.47
2022-08-29T03:18:49.380Z,9.10
2022-08-29T03:21:41.312Z,9.23
2022-08-29T03:24:33.063Z,6.70
2022-08-29T03:27:25.584Z,12.37
2022-08-29T03:30:18.455Z,9.73
2022-08-29T03:33:11.813Z,12.03
2022-08-29T03:36:03.427Z,9.43
2022-08-29T03:38:58.591Z,10.40
2022-08-29T03:41:49.842Z,11.10
2022-08-29T03:44:42.514Z,6.90
2022-08-29T03:47:34.114Z,11.43
2022-08-29T03:50:25.517Z,13.73
2022-08-29T03:53:16.803Z,8.53
2022-08-29T03:56:08.899Z,10.97
2022-08-29T03:59:02.105Z,10.97
2022-08-29T04:01:54.843Z,9.50
2022-08-29T04:05:07.683Z,9.73
2022-08-29T04:08:00.505Z,10.03
2022-08-29T04:10:51.684Z,9.13
2022-08-29T04:13:43.040Z,9.73
2022-08-29T04:16:34.209Z,10.57
2022-08-29T04:19:26.747Z,9.80
2022-08-29T04:22:17.976Z,8.33
2022-08-29T04:25:11.142Z,8.77
2022-08-29T04:28:02.613Z,9.60
2022-08-29T04:30:54.656Z,10.93
2022-08-29T04:33:46.652Z,9.87
2022-08-29T04:36:39.848Z,7.63
2022-08-29T04:39:31.100Z,11.43
2022-08-29T04:42:22.190Z,10.27
2022-08-29T04:45:14.620Z,10.23
2022-08-29T04:48:06.101Z,8.50
2022-08-29T04:50:58.207Z,11.17
2022-08-29T04:53:50.989Z,8.43
2022-08-29T04:56:47.038Z,11.30
2022-08-29T04:59:38.941Z,7.53
2022-08-29T05:02:30.177Z,13.03
2022-08-29T05:05:21.504Z,11.60
2022-08-29T05:08:12.771Z,9.57
2022-08-29T05:11:06.873Z,10.00
2022-08-29T05:13:58.092Z,8.40
2022-08-29T05:16:49.250Z,13.87
2022-08-29T05:19:45.051Z,12.27
2022-08-29T05:22:36.645Z,12.17
2022-08-29T05:25:27.993Z,16.03
2022-08-29T05:28:20.676Z,18.80
2022-08-29T05:31:14.578Z,15.23
2022-08-29T05:34:16.199Z,15.47
2022-08-29T05:37:19.876Z,12.77
2022-08-29T05:40:11.438Z,16.87
2022-08-29T05:43:02.951Z,13.20
2022-08-29T05:46:03.676Z,13.80
2022-08-29T05:48:55.330Z,11.37
2022-08-29T05:51:46.542Z,16.97
2022-08-29T05:54:38.715Z,18.27
2022-08-29T05:57:30.028Z,11.60
2022-08-29T06:00:21.555Z,12.40
2022-08-29T06:03:14.980Z,13.17
2022-08-29T06:06:06.668Z,11.17
2022-08-29T06:08:59.201Z,10.77
2022-08-29T06:11:53.254Z,13.77
2022-08-29T06:14:50.292Z,11.57
2022-08-29T06:17:41.877Z,10.77
2022-08-29T06:20:34.453Z,14.67
2022-08-29T06:23:28.211Z,13.60
2022-08-29T06:26:20.098Z,10.10
2022-08-29T06:29:11.499Z,14.00
2022-08-29T06:32:02.931Z,12.53
2022-08-29T06:34:54.110Z,13.87
2022-08-29T06:37:46.559Z,12.70
2022-08-29T06:40:37.723Z,13.33
2022-08-29T06:43:28.912Z,12.87
2022-08-29T06:46:21.693Z,12.10
2022-08-29T06:49:13.802Z,12.37
2022-08-29T06:52:05.225Z,13.50
2022-08-29T06:54:58.219Z,13.27
2022-08-29T06:57:49.493Z,11.43
2022-08-29T07:00:40.981Z,16.60
2022-08-29T07:03:32.397Z,10.20
2022-08-29T07:06:24.449Z,11.93
2022-08-29T07:09:15.580Z,12.90
2022-08-29T07:12:08.243Z,10.03
2022-08-29T07:14:59.530Z,13.17
2022-08-29T07:17:51.193Z,15.53
2022-08-29T07:20:42.383Z,9.80
2022-08-29T07:23:33.700Z,12.87
2022-08-29T07:26:26.209Z,13.43
2022-08-29T07:29:21.328Z,10.67
2022-08-29T07:32:12.798Z,10.47
2022-08-29T07:35:04.198Z,9.03
2022-08-29T07:37:57.146Z,10.50
2022-08-29T07:40:48.294Z,9.50
2022-08-29T07:43:39.576Z,11.80
2022-08-29T07:46:32.382Z,16.23
2022-08-29T07:49:23.539Z,11.70
2022-08-29T07:52:14.865Z,10.53
2022-08-29T07:55:06.788Z,9.57
2022-08-29T07:57:58.151Z,15.07
2022-08-29T08:00:49.286Z,10.13
2022-08-29T08:03:42.507Z,10.87
2022-08-29T08:06:34.549Z,14.83
2022-08-29T08:09:27.224Z,9.07
2022-08-29T08:12:19.310Z,12.17
2022-08-29T08:15:11.169Z,12.97
2022-08-29T08:18:03.035Z,10.30
2022-08-29T08:20:55.914Z,10.80
2022-08-29T08:23:47.055Z,14.70
2022-08-29T08:26:38.646Z,11.33
2022-08-29T08:29:29.793Z,13.90
2022-08-29T08:32:20.918Z,10.43
2022-08-29T08:35:12.898Z,11.10
2022-08-29T08:38:06.386Z,8.83
2022-08-29T08:41:01.902Z,14.17
2022-08-29T08:43:54.967Z,11.30
2022-08-29T08:46:49.314Z,10.70
2022-08-29T08:49:42.430Z,9.43
2022-08-29T08:52:38.191Z,10.73
2022-08-29T08:55:35.951Z,11.83
2022-08-29T08:58:33.118Z,12.60
2022-08-29T09:01:28.653Z,16.50
2022-08-29T09:04:27.804Z,9.43
2022-08-29T09:07:26.951Z,8.53
2022-08-29T09:10:22.084Z,9.07
2022-08-29T09:13:31.658Z,8.03
2022-08-29T09:16:25.339Z,9.77
2022-08-29T09:19:17.525Z,10.97
2022-08-29T09:22:11.877Z,11.43
2022-08-29T09:25:05.095Z,9.37
2022-08-29T09:27:56.453Z,12.73
2022-08-29T09:31:14.317Z,8.47
2022-08-29T09:34:08.303Z,10.47
2022-08-29T09:37:04.431Z,11.33
2022-08-29T09:39:59.239Z,10.07
2022-08-29T09:42:53.027Z,8.97
2022-08-29T09:46:02.416Z,10.00
2022-08-29T09:49:13.141Z,8.27
2022-08-29T09:52:14.155Z,12.47
2022-08-29T09:55:18.588Z,8.40
2022-08-29T09:58:10.946Z,10.23
2022-08-29T10:01:04.430Z,8.80
2022-08-29T10:03:59.326Z,8.30
2022-08-29T10:06:52.839Z,9.50
2022-08-29T10:09:53.520Z,14.00
2022-08-29T10:12:55.569Z,8.93
2022-08-29T10:15:51.344Z,10.17
2022-08-29T10:18:45.880Z,10.77
2022-08-29T10:21:41.925Z,11.67
2022-08-29T10:24:42.958Z,10.67
2022-08-29T10:27:40.998Z,8.70
2022-08-29T10:30:37.845Z,11.00
2022-08-29T10:33:35.559Z,10.37
2022-08-29T10:36:29.631Z,9.23
2022-08-29T10:39:26.405Z,8.20
2022-08-29T10:42:22.027Z,15.87
2022-08-29T10:45:17.751Z,8.70
2022-08-29T10:48:11.719Z,10.63
2022-08-29T10:51:09.546Z,10.30
2022-08-29T10:54:06.760Z,9.77
2022-08-29T10:56:58.782Z,10.13
2022-08-29T10:59:54.619Z,8.50
2022-08-29T11:02:47.869Z,9.90
2022-08-29T11:05:46.102Z,12.37
2022-08-29T11:08:40.963Z,8.03
2022-08-29T11:11:33.195Z,8.90
2022-08-29T11:14:27.043Z,8.97
2022-08-29T11:17:19.226Z,9.67
2022-08-29T11:20:13.691Z,7.37
2022-08-29T11:23:09.730Z,7.40
2022-08-29T11:26:03.136Z,7.70
2022-08-29T11:28:58.000Z,9.97
2022-08-29T11:31:51.670Z,7.60
2022-08-29T11:34:48.358Z,9.23
2022-08-29T11:37:56.565Z,9.17
2022-08-29T11:44:16.005Z,9.17
2022-08-29T11:47:22.269Z,8.40
2022-08-29T11:50:22.287Z,7.27
2022-08-29T11:53:16.739Z,9.83
2022-08-29T11:56:27.747Z,6.77
2022-08-29T11:59:34.231Z,8.77
2022-08-29T12:02:43.503Z,6.57
2022-08-29T12:05:57.888Z,7.17
2022-08-29T12:08:51.905Z,7.57
2022-08-29T12:12:01.976Z,10.40
2022-08-29T12:14:54.748Z,7.07
2022-08-29T12:18:01.370Z,6.40
2022-08-29T12:20:55.695Z,7.73
2022-08-29T12:23:48.486Z,7.37
2022-08-29T12:26:41.482Z,7.10
2022-08-29T12:29:41.063Z,5.57
2022-08-29T12:32:44.298Z,6.53
2022-08-29T12:35:47.877Z,7.27
2022-08-29T12:38:50.044Z,6.50
2022-08-29T12:41:49.807Z,6.60
2022-08-29T12:44:42.098Z,6.83
2022-08-29T12:47:34.703Z,7.10
2022-08-29T12:50:29.601Z,5.67
2022-08-29T12:53:23.504Z,6.17
2022-08-29T12:56:17.910Z,5.80
2022-08-29T12:59:17.042Z,7.20
2022-08-29T13:02:08.457Z,6.57
2022-08-29T13:05:00.234Z,6.47
2022-08-29T13:07:56.201Z,5.17
2022-08-29T13:10:53.317Z,10.17
2022-08-29T13:13:44.819Z,7.80
2022-08-29T13:16:36.114Z,7.03
2022-08-29T13:19:27.519Z,7.37
2022-08-29T13:22:19.209Z,5.83
2022-08-29T13:25:11.955Z,5.67
2022-08-29T13:28:03.508Z,8.27
2022-08-29T13:31:25.343Z,8.57
2022-08-29T13:34:20.859Z,9.00
2022-08-29T13:37:28.248Z,5.27
2022-08-29T13:40:31.765Z,6.97
2022-08-29T13:43:34.232Z,6.67
2022-08-29T13:46:28.131Z,7.73
2022-08-29T13:49:20.110Z,5.23
2022-08-29T13:52:12.145Z,5.20
2022-08-29T13:55:03.664Z,5.77
2022-08-29T13:57:56.774Z,7.27
2022-08-29T14:00:48.285Z,5.97
2022-08-29T14:03:39.855Z,6.00
2022-08-29T14:06:32.896Z,4.40
2022-08-29T14:09:28.294Z,5.53
2022-08-29T14:12:20.078Z,5.00
2022-08-29T14:15:25.461Z,7.63
2022-08-29T14:18:17.179Z,7.93
2022-08-29T14:21:08.465Z,6.50
2022-08-29T14:23:59.805Z,6.63
2022-08-29T14:26:55.653Z,6.97
2022-08-29T14:29:53.228Z,5.33
2022-08-29T14:32:46.004Z,4.80
2022-08-29T14:35:37.177Z,5.60
2022-08-29T14:38:33.996Z,5.03
2022-08-29T14:41:25.382Z,5.90
2022-08-29T14:44:20.264Z,5.13
2022-08-29T14:47:12.536Z,4.10
2022-08-29T14:50:06.196Z,6.00
2022-08-29T14:52:57.338Z,6.00
2022-08-29T14:55:48.702Z,4.63
2022-08-29T14:58:40.087Z,4.53
2022-08-29T15:01:31.456Z,5.13
2022-08-29T15:04:35.373Z,5.57
2022-08-29T15:07:30.245Z,6.90
2022-08-29T15:10:23.638Z,3.20
2022-08-29T15:13:14.966Z,3.50
2022-08-29T15:16:06.405Z,5.13
2022-08-29T15:22:08.961Z,5.27
2022-08-29T15:25:01.677Z,4.30
2022-08-29T15:27:53.208Z,2.87
2022-08-29T15:30:44.363Z,5.30
2022-08-29T15:33:35.305Z,3.00
2022-08-29T15:36:26.543Z,3.00
2022-08-29T15:39:17.778Z,3.87
2022-08-29T15:42:12.092Z,5.40
2022-08-29T15:45:10.643Z,2.63
2022-08-29T15:48:02.501Z,2.83
2022-08-29T15:50:55.350Z,2.00
2022-08-29T15:53:46.630Z,3.07
2022-08-29T15:56:38.167Z,4.63
2022-08-29T15:59:56.512Z,4.30
2022-08-29T16:02:42.427Z,3.43
2022-08-29T16:05:34.375Z,2.93
2022-08-29T16:08:29.740Z,3.97
2022-08-29T16:11:21.177Z,2.50
2022-08-29T16:14:57.386Z,6.97
2022-08-29T16:17:25.365Z,5.10
2022-08-29T16:20:16.389Z,2.77
2022-08-29T16:23:07.552Z,2.80
2022-08-29T16:25:58.665Z,2.20
2022-08-29T16:28:50.170Z,2.93
2022-08-29T16:31:41.680Z,1.90
2022-08-29T16:34:34.460Z,1.73
2022-08-29T16:37:26.152Z,2.23
2022-08-29T16:40:18.033Z,5.00
2022-08-29T16:43:09.372Z,3.23
2022-08-29T16:46:00.654Z,1.80
2022-08-29T16:48:51.832Z,2.40
2022-08-29T16:51:44.515Z,3.20
2022-08-29T16:54:35.975Z,4.23
2022-08-29T16:57:27.338Z,2.67
2022-08-29T17:00:18.447Z,2.13
2022-08-29T17:03:11.677Z,3.73
2022-08-29T17:06:02.904Z,2.60
2022-08-29T17:08:54.457Z,3.30
2022-08-29T17:11:44.878Z,3.20
2022-08-29T17:14:35.247Z,1.60
2022-08-29T17:17:26.729Z,1.73
2022-08-29T17:20:20.315Z,2.53
2022-08-29T17:23:11.866Z,2.17
2022-08-29T17:26:05.967Z,1.80
2022-08-29T17:28:57.559Z,2.10
2022-08-29T17:31:48.740Z,3.40
2022-08-29T17:34:40.364Z,1.87
2022-08-29T17:37:36.033Z,3.17
2022-08-29T17:40:27.391Z,1.93
2022-08-29T17:43:19.926Z,2.80
2022-08-29T17:46:11.734Z,2.87
2022-08-29T17:49:07.405Z,2.23
2022-08-29T17:51:59.267Z,2.70
2022-08-29T17:54:50.482Z,2.07
2022-08-29T17:57:42.286Z,2.53
2022-08-29T18:00:34.909Z,2.57
2022-08-29T18:03:26.915Z,4.73
2022-08-29T18:06:18.129Z,2.20
2022-08-29T18:09:09.500Z,2.43
2022-08-29T18:12:04.219Z,15.23
2022-08-29T18:14:55.762Z,6.10
2022-08-29T18:17:48.459Z,5.17
2022-08-29T18:20:41.189Z,3.67
2022-08-29T18:23:32.681Z,4.90
2022-08-29T18:26:24.303Z,9.83
2022-08-29T18:29:15.941Z,5.17
2022-08-29T18:32:07.585Z,3.63
2022-08-29T18:35:01.020Z,3.97
2022-08-29T18:37:52.422Z,4.80
2022-08-29T18:40:44.043Z,4.37
2022-08-29T18:43:36.539Z,4.60
2022-08-29T18:46:28.436Z,4.43
2022-08-29T18:49:40.638Z,3.70
2022-08-29T18:52:36.571Z,3.30
2022-08-29T18:55:27.921Z,5.40
2022-08-29T18:58:19.710Z,4.33
2022-08-29T19:01:11.938Z,4.03
2022-08-29T19:04:03.554Z,4.63
2022-08-29T19:06:54.930Z,4.97
2022-08-29T19:09:47.804Z,4.80
2022-08-29T19:12:38.841Z,4.90
2022-08-29T19:15:31.120Z,6.63
2022-08-29T19:18:22.189Z,6.63
2022-08-29T19:21:14.076Z,7.93
2022-08-29T19:24:05.487Z,5.07
2022-08-29T19:26:58.187Z,6.20
2022-08-29T19:29:50.424Z,5.13
2022-08-29T19:32:45.375Z,4.73
2022-08-29T19:35:38.088Z,4.70
2022-08-29T19:38:30.275Z,5.13
2022-08-29T19:41:22.081Z,3.80
2022-08-29T19:44:14.959Z,4.93
2022-08-29T19:47:06.974Z,4.27
2022-08-29T19:49:58.311Z,3.40
2022-08-29T19:52:54.386Z,4.27
2022-08-29T19:55:45.815Z,2.80
2022-08-29T19:58:37.450Z,3.87
2022-08-29T20:01:31.769Z,3.00
2022-08-29T20:04:23.065Z,4.00
2022-08-29T20:07:15.307Z,3.07
2022-08-29T20:10:07.842Z,3.10
2022-08-29T20:12:59.361Z,4.10
2022-08-29T20:15:51.170Z,3.73
2022-08-29T20:18:44.889Z,3.23
2022-08-29T20:21:36.463Z,3.97
2022-08-29T20:24:27.607Z,3.00
2022-08-29T20:27:18.789Z,3.00
2022-08-29T20:30:12.203Z,3.77
2022-08-29T20:33:04.729Z,3.40
2022-08-29T20:36:24.133Z,3.87
2022-08-29T20:39:16.243Z,3.00
2022-08-29T20:42:08.358Z,3.10
2022-08-29T20:45:00.817Z,4.50
2022-08-29T20:47:52.443Z,4.17
2022-08-29T20:50:44.218Z,3.43
2022-08-29T20:53:37.156Z,3.70
2022-08-29T20:56:28.645Z,3.00
2022-08-29T20:59:20.977Z,3.10
2022-08-29T21:02:14.836Z,2.83
2022-08-29T21:05:25.024Z,4.20
2022-08-29T21:08:19.992Z,3.63
2022-08-29T21:11:14.600Z,4.10
2022-08-29T21:14:05.855Z,4.87
2022-08-29T21:16:58.146Z,2.70
2022-08-29T21:19:49.866Z,3.10
2022-08-29T21:22:42.052Z,3.63
2022-08-29T21:25:33.629Z,3.33
2022-08-29T21:28:27.032Z,3.70
2022-08-29T21:31:19.598Z,2.60
2022-08-29T21:34:11.615Z,2.67
2022-08-29T21:37:03.239Z,2.67
2022-08-29T21:39:55.123Z,4.80
2022-08-29T21:42:46.457Z,2.83
2022-08-29T21:45:39.361Z,4.30
2022-08-29T21:48:30.728Z,2.83
2022-08-29T21:51:22.340Z,2.73
2022-08-29T21:54:15.333Z,2.47
2022-08-29T21:57:06.743Z,4.83
2022-08-29T21:59:57.989Z,3.00
2022-08-29T22:02:51.055Z,3.53
2022-08-29T22:05:44.006Z,3.23
2022-08-29T22:08:35.765Z,2.60
2022-08-29T22:11:37.230Z,3.63
2022-08-29T22:14:43.498Z,3.10
2022-08-29T22:17:34.665Z,3.13
2022-08-29T22:20:27.199Z,3.20
2022-08-29T22:23:20.206Z,3.70
2022-08-29T22:26:11.824Z,3.83
2022-08-29T22:29:03.447Z,2.77
2022-08-29T22:31:56.230Z,2.67
2022-08-29T22:34:47.525Z,3.10
2022-08-29T22:37:40.305Z,2.90
2022-08-29T22:40:32.811Z,2.73
2022-08-29T22:43:24.332Z,2.90
2022-08-29T22:46:17.453Z,4.43
2022-08-29T22:49:08.771Z,4.27
2022-08-29T22:52:00.136Z,3.50
2022-08-29T22:54:52.940Z,3.77
2022-08-29T22:57:45.324Z,3.73
2022-08-29T23:00:36.603Z,3.27
2022-08-29T23:03:27.962Z,4.00
2022-08-29T23:06:19.377Z,3.87
2022-08-29T23:09:10.589Z,3.50
2022-08-29T23:12:03.295Z,3.40
2022-08-29T23:14:56.475Z,4.17
2022-08-29T23:17:47.981Z,5.13
2022-08-29T23:20:41.443Z,7.03
2022-08-29T23:23:32.599Z,3.93
2022-08-29T23:26:24.065Z,4.07
2022-08-29T23:29:16.898Z,5.37
2022-08-29T23:32:08.321Z,4.33
2022-08-29T23:34:59.762Z,3.87
2022-08-29T23:37:51.107Z,3.83
2022-08-29T23:40:42.486Z,3.80
2022-08-29T23:43:36.910Z,5.37
2022-08-29T23:46:30.009Z,4.17
2022-08-29T23:49:21.512Z,4.87
2022-08-29T23:52:13.472Z,4.03
2022-08-29T23:55:05.222Z,4.17
2022-08-29T23:57:56.767Z,4.43
